sensor_id;sensor_type;location;lat;lon;timestamp;pressure;altitude;pressure_sealevel;temperature;humidity
39823;BME280;25499;53.958;10.970;2023-04-20T06:20:54;102145.34;;;5.96;100.00
39823;BME280;25499;53.958;10.970;2023-04-20T06:23:21;102142.56;;;5.91;100.00
39823;BME280;25499;53.958;10.970;2023-04-20T06:25:48;102139.16;;;5.92;100.00
39823;BME280;25499;53.958;10.970;2023-04-20T06:28:14;102140.78;;;5.90;100.00
39823;BME280;25499;53.958;10.970;2023-04-20T06:30:41;102154.84;;;5.97;100.00
39823;BME280;25499;53.958;10.970;2023-04-20T06:33:08;102154.22;;;6.03;100.00
39823;BME280;25499;53.958;10.970;2023-04-20T06:35:38;102153.63;;;6.10;100.00
39823;BME280;25499;53.958;10.970;2023-04-20T06:38:06;102157.88;;;6.08;100.00
39823;BME280;25499;53.958;10.970;2023-04-20T06:40:33;102160.31;;;6.27;100.00
39823;BME280;25499;53.958;10.970;2023-04-20T06:43:00;102159.38;;;6.25;100.00
39823;BME280;25499;53.958;10.970;2023-04-20T06:45:27;102147.06;;;6.18;100.00
39823;BME280;25499;53.958;10.970;2023-04-20T06:47:53;102144.63;;;6.23;100.00
39823;BME280;25499;53.958;10.970;2023-04-20T06:50:20;102136.97;;;6.26;100.00
39823;BME280;25499;53.958;10.970;2023-04-20T06:52:47;102142.31;;;6.30;100.00
39823;BME280;25499;53.958;10.970;2023-04-20T06:55:16;102145.09;;;6.35;100.00
39823;BME280;25499;53.958;10.970;2023-04-20T06:57:43;102151.25;;;6.39;100.00
39823;BME280;25499;53.958;10.970;2023-04-20T07:00:11;102156.13;;;6.53;100.00
39823;BME280;25499;53.958;10.970;2023-04-20T07:02:41;102157.28;;;6.63;100.00
39823;BME280;25499;53.958;10.970;2023-04-20T07:05:08;102162.19;;;6.80;100.00
39823;BME280;25499;53.958;10.970;2023-04-20T07:07:35;102155.41;;;6.83;100.00
39823;BME280;25499;53.958;10.970;2023-04-20T07:10:03;102151.84;;;6.80;100.00
39823;BME280;25499;53.958;10.970;2023-04-20T07:12:33;102152.91;;;6.61;100.00
39823;BME280;25499;53.958;10.970;2023-04-20T07:15:00;102157.66;;;6.72;100.00
39823;BME280;25499;53.958;10.970;2023-04-20T07:17:27;102156.91;;;6.77;100.00
39823;BME280;25499;53.958;10.970;2023-04-20T07:19:55;102169.03;;;6.78;100.00
39823;BME280;25499;53.958;10.970;2023-04-20T07:22:23;102164.72;;;6.78;100.00
39823;BME280;25499;53.958;10.970;2023-04-20T07:24:50;102168.69;;;6.68;100.00
39823;BME280;25499;53.958;10.970;2023-04-20T07:27:17;102173.28;;;6.76;100.00
39823;BME280;25499;53.958;10.970;2023-04-20T07:29:45;102168.16;;;6.77;100.00
39823;BME280;25499;53.958;10.970;2023-04-20T07:32:12;102172.91;;;6.90;100.00
39823;BME280;25499;53.958;10.970;2023-04-20T07:34:39;102173.59;;;6.85;100.00
39823;BME280;25499;53.958;10.970;2023-04-20T07:37:05;102178.94;;;6.89;100.00
39823;BME280;25499;53.958;10.970;2023-04-20T07:39:32;102181.13;;;6.79;100.00
39823;BME280;25499;53.958;10.970;2023-04-20T07:42:01;102191.00;;;6.89;100.00
39823;BME280;25499;53.958;10.970;2023-04-20T07:44:29;102187.09;;;6.76;100.00
39823;BME280;25499;53.958;10.970;2023-04-20T07:46:57;102184.81;;;6.85;100.00
39823;BME280;25499;53.958;10.970;2023-04-20T07:49:24;102195.28;;;6.88;100.00
39823;BME280;25499;53.958;10.970;2023-04-20T07:51:50;102183.94;;;6.85;100.00
39823;BME280;25499;53.958;10.970;2023-04-20T07:54:17;102195.97;;;6.83;100.00
39823;BME280;25499;53.958;10.970;2023-04-20T07:56:45;102197.94;;;6.90;100.00
39823;BME280;25499;53.958;10.970;2023-04-20T07:59:12;102198.00;;;6.91;100.00
39823;BME280;25499;53.958;10.970;2023-04-20T08:01:38;102200.13;;;7.03;100.00
39823;BME280;25499;53.958;10.970;2023-04-20T08:04:08;102200.44;;;7.13;100.00
39823;BME280;25499;53.958;10.970;2023-04-20T08:06:34;102195.94;;;7.07;100.00
39823;BME280;25499;53.958;10.970;2023-04-20T08:09:01;102199.63;;;7.14;100.00
39823;BME280;25499;53.958;10.970;2023-04-20T08:11:28;102203.25;;;7.19;100.00
39823;BME280;25499;53.958;10.970;2023-04-20T08:13:55;102211.31;;;7.28;100.00
39823;BME280;25499;53.958;10.970;2023-04-20T08:16:22;102210.16;;;7.18;100.00
39823;BME280;25499;53.958;10.970;2023-04-20T08:18:49;102214.19;;;7.10;100.00
39823;BME280;25499;53.958;10.970;2023-04-20T08:21:17;102229.88;;;7.15;100.00
39823;BME280;25499;53.958;10.970;2023-04-20T08:23:47;102230.81;;;7.17;100.00
39823;BME280;25499;53.958;10.970;2023-04-20T08:26:14;102239.69;;;7.23;100.00
39823;BME280;25499;53.958;10.970;2023-04-20T08:28:41;102233.25;;;7.38;100.00
39823;BME280;25499;53.958;10.970;2023-04-20T08:31:08;102224.19;;;7.25;100.00
39823;BME280;25499;53.958;10.970;2023-04-20T08:33:35;102234.34;;;7.19;100.00
39823;BME280;25499;53.958;10.970;2023-04-20T08:36:02;102236.97;;;7.20;100.00
39823;BME280;25499;53.958;10.970;2023-04-20T08:38:30;102242.22;;;7.22;100.00
39823;BME280;25499;53.958;10.970;2023-04-20T08:40:57;102239.56;;;7.20;100.00
39823;BME280;25499;53.958;10.970;2023-04-20T08:43:24;102234.63;;;7.26;100.00
39823;BME280;25499;53.958;10.970;2023-04-20T08:45:53;102234.16;;;7.38;100.00
39823;BME280;25499;53.958;10.970;2023-04-20T08:48:23;102236.22;;;7.49;100.00
39823;BME280;25499;53.958;10.970;2023-04-20T08:50:50;102232.78;;;7.50;100.00
39823;BME280;25499;53.958;10.970;2023-04-20T08:53:17;102242.50;;;7.55;100.00
39823;BME280;25499;53.958;10.970;2023-04-20T08:55:47;102226.16;;;7.58;100.00
39823;BME280;25499;53.958;10.970;2023-04-20T08:58:14;102231.44;;;7.61;100.00
39823;BME280;25499;53.958;10.970;2023-04-20T09:00:46;102226.03;;;7.55;100.00
39823;BME280;25499;53.958;10.970;2023-04-20T09:03:13;102236.78;;;7.65;100.00
39823;BME280;25499;53.958;10.970;2023-04-20T09:05:39;102229.78;;;7.63;100.00
39823;BME280;25499;53.958;10.970;2023-04-20T09:08:07;102228.31;;;7.71;100.00
39823;BME280;25499;53.958;10.970;2023-04-20T09:10:43;102226.53;;;7.70;100.00
39823;BME280;25499;53.958;10.970;2023-04-20T09:13:21;102214.28;;;7.92;100.00
39823;BME280;25499;53.958;10.970;2023-04-20T09:15:48;102209.19;;;7.95;100.00
39823;BME280;25499;53.958;10.970;2023-04-20T09:18:15;102217.34;;;8.36;100.00
39823;BME280;25499;53.958;10.970;2023-04-20T09:20:42;102204.47;;;8.68;100.00
39823;BME280;25499;53.958;10.970;2023-04-20T09:23:12;102216.06;;;8.81;100.00
39823;BME280;25499;53.958;10.970;2023-04-20T09:25:39;102209.13;;;8.80;100.00
39823;BME280;25499;53.958;10.970;2023-04-20T09:28:08;102213.13;;;8.68;100.00
39823;BME280;25499;53.958;10.970;2023-04-20T09:30:37;102210.66;;;8.73;100.00
39823;BME280;25499;53.958;10.970;2023-04-20T09:33:05;102223.06;;;8.83;100.00
39823;BME280;25499;53.958;10.970;2023-04-20T09:35:32;102227.78;;;8.96;100.00
39823;BME280;25499;53.958;10.970;2023-04-20T09:38:01;102226.59;;;9.17;100.00
39823;BME280;25499;53.958;10.970;2023-04-20T09:40:28;102225.72;;;9.18;100.00
39823;BME280;25499;53.958;10.970;2023-04-20T09:42:58;102227.31;;;9.11;100.00
39823;BME280;25499;53.958;10.970;2023-04-20T09:45:28;102228.03;;;8.75;100.00
39823;BME280;25499;53.958;10.970;2023-04-20T09:47:56;102231.78;;;8.85;100.00
39823;BME280;25499;53.958;10.970;2023-04-20T09:50:24;102236.78;;;8.77;100.00
39823;BME280;25499;53.958;10.970;2023-04-20T09:52:51;102233.19;;;8.74;100.00
39823;BME280;25499;53.958;10.970;2023-04-20T09:55:18;102237.25;;;8.64;100.00
39823;BME280;25499;53.958;10.970;2023-04-20T09:57:47;102239.28;;;8.74;100.00
39823;BME280;25499;53.958;10.970;2023-04-20T10:00:15;102239.13;;;8.70;100.00
39823;BME280;25499;53.958;10.970;2023-04-20T10:02:45;102243.69;;;8.78;100.00
39823;BME280;25499;53.958;10.970;2023-04-20T10:05:13;102237.25;;;8.96;100.00
39823;BME280;25499;53.958;10.970;2023-04-20T10:07:40;102228.72;;;9.00;100.00
39823;BME280;25499;53.958;10.970;2023-04-20T10:10:09;102228.88;;;9.05;100.00
39823;BME280;25499;53.958;10.970;2023-04-20T10:12:47;102234.03;;;9.38;100.00
39823;BME280;25499;53.958;10.970;2023-04-20T10:15:36;102219.16;;;9.66;100.00
39823;BME280;25499;53.958;10.970;2023-04-20T10:18:13;102212.63;;;9.83;100.00
39823;BME280;25499;53.958;10.970;2023-04-20T10:20:43;102213.03;;;10.00;100.00
39823;BME280;25499;53.958;10.970;2023-04-20T10:23:10;102196.75;;;10.09;100.00
39823;BME280;25499;53.958;10.970;2023-04-20T10:25:39;102195.47;;;10.31;100.00
39823;BME280;25499;53.958;10.970;2023-04-20T10:28:07;102188.84;;;10.44;100.00
39823;BME280;25499;53.958;10.970;2023-04-20T10:30:34;102179.00;;;10.73;99.92
39823;BME280;25499;53.958;10.970;2023-04-20T10:33:05;102176.44;;;12.38;95.48
39823;BME280;25499;53.958;10.970;2023-04-20T10:35:46;102148.78;;;13.49;87.81
39823;BME280;25499;53.958;10.970;2023-04-20T10:38:13;102125.75;;;13.03;83.02
39823;BME280;25499;53.958;10.970;2023-04-20T10:40:40;102140.09;;;12.58;83.77
39823;BME280;25499;53.958;10.970;2023-04-20T10:43:17;102134.59;;;12.35;83.98
39823;BME280;25499;53.958;10.970;2023-04-20T10:45:45;102157.00;;;12.16;84.66
39823;BME280;25499;53.958;10.970;2023-04-20T10:48:13;102147.94;;;11.91;83.50
39823;BME280;25499;53.958;10.970;2023-04-20T10:50:40;102162.09;;;12.05;84.98
39823;BME280;25499;53.958;10.970;2023-04-20T10:53:18;102160.41;;;11.54;85.91
39823;BME280;25499;53.958;10.970;2023-04-20T10:55:45;102181.53;;;11.71;87.41
39823;BME280;25499;53.958;10.970;2023-04-20T10:58:20;102180.09;;;11.88;88.21
39823;BME280;25499;53.958;10.970;2023-04-20T11:00:56;102186.03;;;11.81;88.63
39823;BME280;25499;53.958;10.970;2023-04-20T11:03:23;102174.31;;;11.51;87.60
39823;BME280;25499;53.958;10.970;2023-04-20T11:05:50;102174.78;;;11.27;88.86
39823;BME280;25499;53.958;10.970;2023-04-20T11:08:18;102188.19;;;11.50;91.63
39823;BME280;25499;53.958;10.970;2023-04-20T11:10:45;102191.78;;;11.57;91.89
39823;BME280;25499;53.958;10.970;2023-04-20T11:13:19;102197.94;;;12.17;92.31
39823;BME280;25499;53.958;10.970;2023-04-20T11:15:52;102185.78;;;12.96;89.62
39823;BME280;25499;53.958;10.970;2023-04-20T11:18:19;102160.19;;;13.53;84.33
39823;BME280;25499;53.958;10.970;2023-04-20T11:20:53;102154.03;;;13.52;83.38
39823;BME280;25499;53.958;10.970;2023-04-20T11:23:23;102126.31;;;13.77;80.10
39823;BME280;25499;53.958;10.970;2023-04-20T11:25:52;102099.44;;;14.22;77.09
39823;BME280;25499;53.958;10.970;2023-04-20T11:28:20;102111.84;;;14.73;76.81
39823;BME280;25499;53.958;10.970;2023-04-20T11:30:47;102093.50;;;14.90;75.01
39823;BME280;25499;53.958;10.970;2023-04-20T11:33:24;102092.59;;;14.59;74.81
39823;BME280;25499;53.958;10.970;2023-04-20T11:35:52;102073.38;;;14.72;73.38
39823;BME280;25499;53.958;10.970;2023-04-20T11:38:27;102074.28;;;14.79;72.54
39823;BME280;25499;53.958;10.970;2023-04-20T11:40:53;102081.25;;;14.71;72.61
39823;BME280;25499;53.958;10.970;2023-04-20T11:43:20;102099.63;;;14.89;73.32
39823;BME280;25499;53.958;10.970;2023-04-20T11:45:47;102087.38;;;14.95;73.08
39823;BME280;25499;53.958;10.970;2023-04-20T11:48:14;102048.91;;;14.81;70.33
39823;BME280;25499;53.958;10.970;2023-04-20T11:50:43;102043.69;;;14.60;69.52
39823;BME280;25499;53.958;10.970;2023-04-20T11:53:09;102036.66;;;14.49;69.24
39823;BME280;25499;53.958;10.970;2023-04-20T11:55:40;102067.19;;;14.40;70.64
39823;BME280;25499;53.958;10.970;2023-04-20T11:58:08;102053.16;;;14.16;70.48
39823;BME280;25499;53.958;10.970;2023-04-20T12:00:35;102074.78;;;13.70;71.69
39823;BME280;25499;53.958;10.970;2023-04-20T12:03:01;102087.81;;;13.58;72.79
39823;BME280;25499;53.958;10.970;2023-04-20T12:05:28;102075.72;;;13.82;71.84
39823;BME280;25499;53.958;10.970;2023-04-20T12:07:55;102067.91;;;13.89;72.03
39823;BME280;25499;53.958;10.970;2023-04-20T12:10:22;102072.97;;;13.58;71.99
39823;BME280;25499;53.958;10.970;2023-04-20T12:12:50;102070.47;;;13.78;71.82
39823;BME280;25499;53.958;10.970;2023-04-20T12:15:17;102077.50;;;13.90;72.30
39823;BME280;25499;53.958;10.970;2023-04-20T12:17:44;102060.06;;;14.00;71.43
39823;BME280;25499;53.958;10.970;2023-04-20T12:20:11;102073.31;;;14.32;71.48
39823;BME280;25499;53.958;10.970;2023-04-20T12:22:38;102061.88;;;14.15;70.77
39823;BME280;25499;53.958;10.970;2023-04-20T12:25:06;102082.81;;;14.13;72.00
39823;BME280;25499;53.958;10.970;2023-04-20T12:27:33;102097.66;;;14.11;73.01
39823;BME280;25499;53.958;10.970;2023-04-20T12:30:01;102068.16;;;14.79;71.40
39823;BME280;25499;53.958;10.970;2023-04-20T12:32:28;102029.66;;;14.54;70.05
39823;BME280;25499;53.958;10.970;2023-04-20T12:34:55;102048.00;;;14.56;70.36
39823;BME280;25499;53.958;10.970;2023-04-20T12:37:21;102056.78;;;14.66;69.89
39823;BME280;25499;53.958;10.970;2023-04-20T12:39:48;102054.16;;;15.14;69.53
39823;BME280;25499;53.958;10.970;2023-04-20T12:42:15;102022.69;;;14.78;68.33
39823;BME280;25499;53.958;10.970;2023-04-20T12:44:42;102019.97;;;14.07;68.88
39823;BME280;25499;53.958;10.970;2023-04-20T12:47:10;102039.97;;;13.93;70.23
39823;BME280;25499;53.958;10.970;2023-04-20T12:49:38;102046.03;;;13.81;70.49
39823;BME280;25499;53.958;10.970;2023-04-20T12:52:04;102039.97;;;13.87;70.00
39823;BME280;25499;53.958;10.970;2023-04-20T12:54:31;102053.03;;;13.88;71.22
39823;BME280;25499;53.958;10.970;2023-04-20T12:56:58;102052.16;;;13.85;71.71
39823;BME280;25499;53.958;10.970;2023-04-20T12:59:26;102056.50;;;13.79;71.93
39823;BME280;25499;53.958;10.970;2023-04-20T13:01:53;102050.44;;;13.87;72.32
39823;BME280;25499;53.958;10.970;2023-04-20T13:04:21;102055.81;;;14.30;72.44
39823;BME280;25499;53.958;10.970;2023-04-20T13:06:48;102041.78;;;14.08;71.70
39823;BME280;25499;53.958;10.970;2023-04-20T13:09:15;102047.88;;;14.10;71.46
39823;BME280;25499;53.958;10.970;2023-04-20T13:11:42;102040.81;;;13.84;72.24
39823;BME280;25499;53.958;10.970;2023-04-20T13:14:09;102038.78;;;13.29;72.13
39823;BME280;25499;53.958;10.970;2023-04-20T13:16:35;102069.16;;;13.15;74.42
39823;BME280;25499;53.958;10.970;2023-04-20T13:19:02;102053.53;;;13.27;74.18
39823;BME280;25499;53.958;10.970;2023-04-20T13:21:30;102061.13;;;12.93;74.71
39823;BME280;25499;53.958;10.970;2023-04-20T13:23:57;102060.47;;;13.16;74.62
39823;BME280;25499;53.958;10.970;2023-04-20T13:26:24;102031.47;;;12.85;74.04
39823;BME280;25499;53.958;10.970;2023-04-20T13:28:51;102042.63;;;12.65;74.43
39823;BME280;25499;53.958;10.970;2023-04-20T13:31:18;102055.59;;;12.55;74.53
39823;BME280;25499;53.958;10.970;2023-04-20T13:33:45;102060.59;;;12.33;76.10
39823;BME280;25499;53.958;10.970;2023-04-20T13:36:11;102066.09;;;12.59;76.71
39823;BME280;25499;53.958;10.970;2023-04-20T13:38:40;102060.06;;;12.71;75.88
39823;BME280;25499;53.958;10.970;2023-04-20T13:41:06;102060.41;;;12.18;77.56
39823;BME280;25499;53.958;10.970;2023-04-20T13:43:33;102072.78;;;12.32;78.46
39823;BME280;25499;53.958;10.970;2023-04-20T13:46:00;102064.91;;;12.29;78.96
39823;BME280;25499;53.958;10.970;2023-04-20T13:48:27;102063.09;;;12.22;79.34
39823;BME280;25499;53.958;10.970;2023-04-20T13:50:53;102072.88;;;12.43;80.32
39823;BME280;25499;53.958;10.970;2023-04-20T13:53:21;102062.28;;;12.29;79.88
39823;BME280;25499;53.958;10.970;2023-04-20T13:55:49;102058.53;;;12.06;80.41
39823;BME280;25499;53.958;10.970;2023-04-20T13:58:15;102053.00;;;11.84;80.37
39823;BME280;25499;53.958;10.970;2023-04-20T14:00:42;102048.66;;;11.83;80.63
39823;BME280;25499;53.958;10.970;2023-04-20T14:03:09;102053.81;;;11.79;80.68
39823;BME280;25499;53.958;10.970;2023-04-20T14:05:37;102054.63;;;11.73;81.59
39823;BME280;25499;53.958;10.970;2023-04-20T14:08:04;102052.75;;;11.63;81.86
39823;BME280;25499;53.958;10.970;2023-04-20T14:10:32;102037.88;;;11.57;81.46
39823;BME280;25499;53.958;10.970;2023-04-20T14:13:00;102025.44;;;11.36;81.34
39823;BME280;25499;53.958;10.970;2023-04-20T14:15:26;102036.97;;;11.53;82.00
39823;BME280;25499;53.958;10.970;2023-04-20T14:17:54;102038.44;;;11.34;82.14
39823;BME280;25499;53.958;10.970;2023-04-20T14:20:21;102044.56;;;11.38;82.71
39823;BME280;25499;53.958;10.970;2023-04-20T14:22:48;102039.97;;;11.22;83.60
39823;BME280;25499;53.958;10.970;2023-04-20T14:25:14;102059.31;;;11.34;84.83
39823;BME280;25499;53.958;10.970;2023-04-20T14:27:41;102051.44;;;11.31;85.50
39823;BME280;25499;53.958;10.970;2023-04-20T14:30:11;102039.69;;;11.01;83.91
39823;BME280;25499;53.958;10.970;2023-04-20T14:32:39;102030.13;;;11.02;84.15
39823;BME280;25499;53.958;10.970;2023-04-20T14:35:06;102046.34;;;10.84;85.18
39823;BME280;25499;53.958;10.970;2023-04-20T14:37:33;102033.25;;;10.81;84.87
39823;BME280;25499;53.958;10.970;2023-04-20T14:40:00;102043.75;;;10.86;85.41
39823;BME280;25499;53.958;10.970;2023-04-20T14:42:29;102047.50;;;11.03;85.36
39823;BME280;25499;53.958;10.970;2023-04-20T14:44:56;102035.19;;;10.93;84.53
39823;BME280;25499;53.958;10.970;2023-04-20T14:47:24;102043.94;;;10.98;84.79
39823;BME280;25499;53.958;10.970;2023-04-20T14:49:51;102053.66;;;11.07;85.35
39823;BME280;25499;53.958;10.970;2023-04-20T14:52:18;102044.13;;;11.07;84.92
39823;BME280;25499;53.958;10.970;2023-04-20T14:54:44;102041.25;;;10.90;84.93
39823;BME280;25499;53.958;10.970;2023-04-20T14:57:11;102041.00;;;10.76;85.34
39823;BME280;25499;53.958;10.970;2023-04-20T14:59:38;102050.03;;;10.97;85.59
39823;BME280;25499;53.958;10.970;2023-04-20T15:02:05;102050.88;;;10.96;85.66
39823;BME280;25499;53.958;10.970;2023-04-20T15:04:33;102046.56;;;10.96;85.60
39823;BME280;25499;53.958;10.970;2023-04-20T15:07:00;102031.13;;;11.09;85.50
39823;BME280;25499;53.958;10.970;2023-04-20T15:09:28;102030.16;;;11.04;84.67
39823;BME280;25499;53.958;10.970;2023-04-20T15:11:55;102034.59;;;11.11;84.93
39823;BME280;25499;53.958;10.970;2023-04-20T15:14:23;102032.81;;;11.07;84.33
39823;BME280;25499;53.958;10.970;2023-04-20T15:16:50;102033.50;;;10.95;84.75
39823;BME280;25499;53.958;10.970;2023-04-20T15:19:16;102031.19;;;11.15;85.15
39823;BME280;25499;53.958;10.970;2023-04-20T15:21:45;102026.75;;;11.09;84.40
39823;BME280;25499;53.958;10.970;2023-04-20T15:24:12;102017.16;;;11.05;84.19
39823;BME280;25499;53.958;10.970;2023-04-20T15:26:39;102024.75;;;10.91;85.00
39823;BME280;25499;53.958;10.970;2023-04-20T15:29:05;102023.50;;;10.69;85.02
39823;BME280;25499;53.958;10.970;2023-04-20T15:31:32;102029.63;;;10.71;86.25
39823;BME280;25499;53.958;10.970;2023-04-20T15:33:59;102035.59;;;10.66;87.06
39823;BME280;25499;53.958;10.970;2023-04-20T15:36:27;102033.03;;;10.67;87.35
39823;BME280;25499;53.958;10.970;2023-04-20T15:38:55;102032.00;;;10.59;87.73
39823;BME280;25499;53.958;10.970;2023-04-20T15:41:22;102025.59;;;10.40;87.83
39823;BME280;25499;53.958;10.970;2023-04-20T15:43:49;102024.63;;;10.33;88.27
39823;BME280;25499;53.958;10.970;2023-04-20T15:46:15;102026.50;;;10.40;88.94
39823;BME280;25499;53.958;10.970;2023-04-20T15:48:43;102025.16;;;10.17;88.85
39823;BME280;25499;53.958;10.970;2023-04-20T15:51:10;102022.34;;;10.06;89.49
39823;BME280;25499;53.958;10.970;2023-04-20T15:53:37;102034.41;;;10.02;90.88
39823;BME280;25499;53.958;10.970;2023-04-20T15:56:06;102034.31;;;9.96;90.96
39823;BME280;25499;53.958;10.970;2023-04-20T15:58:33;102028.75;;;9.79;91.85
39823;BME280;25499;53.958;10.970;2023-04-20T16:01:00;102045.25;;;9.81;92.86
39823;BME280;25499;53.958;10.970;2023-04-20T16:03:26;102040.94;;;9.82;93.72
39823;BME280;25499;53.958;10.970;2023-04-20T16:05:53;102041.06;;;9.88;94.03
39823;BME280;25499;53.958;10.970;2023-04-20T16:08:21;102040.75;;;9.73;94.44
39823;BME280;25499;53.958;10.970;2023-04-20T16:10:47;102030.50;;;9.80;94.34
39823;BME280;25499;53.958;10.970;2023-04-20T16:13:15;102036.56;;;9.81;95.23
39823;BME280;25499;53.958;10.970;2023-04-20T16:15:42;102027.13;;;9.86;95.32
39823;BME280;25499;53.958;10.970;2023-04-20T16:18:09;102034.69;;;9.74;94.79
39823;BME280;25499;53.958;10.970;2023-04-20T16:20:39;102017.09;;;9.62;95.42
39823;BME280;25499;53.958;10.970;2023-04-20T16:26:29;102041.44;;;9.65;96.73
39823;BME280;25499;53.958;10.970;2023-04-20T16:28:57;102038.13;;;9.71;96.49
39823;BME280;25499;53.958;10.970;2023-04-20T16:31:25;102023.28;;;9.67;96.61
39823;BME280;25499;53.958;10.970;2023-04-20T16:33:53;102031.34;;;9.81;95.94
39823;BME280;25499;53.958;10.970;2023-04-20T16:36:20;102029.56;;;9.77;96.22
39823;BME280;25499;53.958;10.970;2023-04-20T16:38:47;102040.13;;;9.84;95.90
39823;BME280;25499;53.958;10.970;2023-04-20T16:41:13;102029.69;;;9.83;95.14
39823;BME280;25499;53.958;10.970;2023-04-20T16:43:40;102026.78;;;9.67;95.81
39823;BME280;25499;53.958;10.970;2023-04-20T16:46:11;102028.31;;;9.59;95.95
39823;BME280;25499;53.958;10.970;2023-04-20T16:48:39;102034.63;;;9.70;96.31
39823;BME280;25499;53.958;10.970;2023-04-20T16:51:06;102031.72;;;9.57;97.17
39823;BME280;25499;53.958;10.970;2023-04-20T16:53:33;102034.50;;;9.64;96.65
39823;BME280;25499;53.958;10.970;2023-04-20T16:56:00;102033.25;;;9.47;97.59
39823;BME280;25499;53.958;10.970;2023-04-20T16:58:27;102039.28;;;9.46;98.39
39823;BME280;25499;53.958;10.970;2023-04-20T17:00:54;102041.00;;;9.44;99.67
39823;BME280;25499;53.958;10.970;2023-04-20T17:03:22;102037.50;;;9.43;99.57
39823;BME280;25499;53.958;10.970;2023-04-20T17:05:49;102040.16;;;9.46;99.87
39823;BME280;25499;53.958;10.970;2023-04-20T17:08:15;102041.00;;;9.44;100.00
39823;BME280;25499;53.958;10.970;2023-04-20T17:10:42;102043.81;;;9.55;99.82
39823;BME280;25499;53.958;10.970;2023-04-20T17:13:09;102046.22;;;9.47;99.72
39823;BME280;25499;53.958;10.970;2023-04-20T17:15:35;102039.81;;;9.31;100.00
39823;BME280;25499;53.958;10.970;2023-04-20T17:18:04;102037.34;;;9.36;100.00
39823;BME280;25499;53.958;10.970;2023-04-20T17:20:33;102034.50;;;9.26;100.00
39823;BME280;25499;53.958;10.970;2023-04-20T17:22:59;102036.25;;;9.26;100.00
39823;BME280;25499;53.958;10.970;2023-04-20T17:25:27;102035.94;;;9.12;100.00
39823;BME280;25499;53.958;10.970;2023-04-20T17:27:54;102040.91;;;9.04;100.00
39823;BME280;25499;53.958;10.970;2023-04-20T17:30:21;102038.56;;;8.78;100.00
39823;BME280;25499;53.958;10.970;2023-04-20T17:32:47;102040.47;;;8.84;100.00
39823;BME280;25499;53.958;10.970;2023-04-20T17:35:14;102047.50;;;8.90;100.00
39823;BME280;25499;53.958;10.970;2023-04-20T17:37:42;102036.78;;;8.76;100.00
39823;BME280;25499;53.958;10.970;2023-04-20T17:40:09;102033.94;;;8.67;100.00
39823;BME280;25499;53.958;10.970;2023-04-20T17:42:36;102033.81;;;8.62;100.00
39823;BME280;25499;53.958;10.970;2023-04-20T17:45:04;102044.41;;;8.70;100.00
39823;BME280;25499;53.958;10.970;2023-04-20T17:47:32;102034.38;;;8.49;100.00
39823;BME280;25499;53.958;10.970;2023-04-20T17:49:59;102039.59;;;8.52;100.00
39823;BME280;25499;53.958;10.970;2023-04-20T17:52:26;102046.25;;;8.42;100.00
39823;BME280;25499;53.958;10.970;2023-04-20T17:54:56;102032.34;;;8.38;100.00
39823;BME280;25499;53.958;10.970;2023-04-20T17:57:24;102039.75;;;8.26;100.00
39823;BME280;25499;53.958;10.970;2023-04-20T17:59:50;102042.25;;;8.23;100.00
39823;BME280;25499;53.958;10.970;2023-04-20T18:02:17;102041.88;;;8.09;100.00
39823;BME280;25499;53.958;10.970;2023-04-20T18:04:44;102046.34;;;8.13;100.00
39823;BME280;25499;53.958;10.970;2023-04-20T18:07:11;102047.13;;;8.11;100.00
39823;BME280;25499;53.958;10.970;2023-04-20T18:09:40;102050.63;;;8.11;100.00
39823;BME280;25499;53.958;10.970;2023-04-20T18:12:09;102051.16;;;8.01;100.00
39823;BME280;25499;53.958;10.970;2023-04-20T18:14:36;102049.81;;;7.83;100.00
39823;BME280;25499;53.958;10.970;2023-04-20T18:17:02;102054.44;;;7.94;100.00
39823;BME280;25499;53.958;10.970;2023-04-20T18:19:29;102053.97;;;7.78;100.00
39823;BME280;25499;53.958;10.970;2023-04-20T18:21:57;102068.56;;;7.75;100.00
39823;BME280;25499;53.958;10.970;2023-04-20T18:24:23;102066.63;;;7.68;100.00
39823;BME280;25499;53.958;10.970;2023-04-20T18:26:51;102062.63;;;7.77;100.00
39823;BME280;25499;53.958;10.970;2023-04-20T18:29:19;102059.72;;;7.68;100.00
39823;BME280;25499;53.958;10.970;2023-04-20T18:31:47;102058.91;;;7.69;100.00
39823;BME280;25499;53.958;10.970;2023-04-20T18:34:17;102059.88;;;7.73;100.00
39823;BME280;25499;53.958;10.970;2023-04-20T18:36:44;102059.06;;;7.75;100.00
39823;BME280;25499;53.958;10.970;2023-04-20T18:39:11;102063.13;;;7.67;100.00
39823;BME280;25499;53.958;10.970;2023-04-20T18:41:39;102064.25;;;7.46;100.00
39823;BME280;25499;53.958;10.970;2023-04-20T18:44:06;102075.06;;;7.60;100.00
39823;BME280;25499;53.958;10.970;2023-04-20T18:46:34;102067.88;;;7.52;100.00
39823;BME280;25499;53.958;10.970;2023-04-20T18:49:01;102073.16;;;7.55;100.00
39823;BME280;25499;53.958;10.970;2023-04-20T18:51:27;102071.69;;;7.36;100.00
39823;BME280;25499;53.958;10.970;2023-04-20T18:53:56;102085.56;;;7.38;100.00
39823;BME280;25499;53.958;10.970;2023-04-20T18:56:23;102084.72;;;7.37;100.00
39823;BME280;25499;53.958;10.970;2023-04-20T18:58:49;102075.69;;;7.26;100.00
39823;BME280;25499;53.958;10.970;2023-04-20T19:01:16;102073.13;;;7.26;100.00
39823;BME280;25499;53.958;10.970;2023-04-20T19:03:44;102073.22;;;7.29;100.00
39823;BME280;25499;53.958;10.970;2023-04-20T19:06:11;102080.69;;;7.47;100.00